sensor_id;sensor_type;location;lat;lon;timestamp;P1;durP1;ratioP1;P2;durP2;ratioP2
64678;SDS011;51094;53.864;27.676;2023-03-11T00:00:29;3.45;;;3.45;;
64678;SDS011;51094;53.864;27.676;2023-03-11T00:02:58;3.95;;;3.95;;
64678;SDS011;51094;53.864;27.676;2023-03-11T00:05:28;4.05;;;4.00;;
64678;SDS011;51094;53.864;27.676;2023-03-11T00:08:00;4.00;;;4.00;;
64678;SDS011;51094;53.864;27.676;2023-03-11T00:10:29;4.15;;;4.15;;
64678;SDS011;51094;53.864;27.676;2023-03-11T00:12:59;4.00;;;3.90;;
64678;SDS011;51094;53.864;27.676;2023-03-11T00:15:27;3.80;;;3.80;;
64678;SDS011;51094;53.864;27.676;2023-03-11T00:17:54;4.20;;;4.15;;
64678;SDS011;51094;53.864;27.676;2023-03-11T00:20:26;4.20;;;4.15;;
64678;SDS011;51094;53.864;27.676;2023-03-11T00:22:54;3.85;;;3.85;;
64678;SDS011;51094;53.864;27.676;2023-03-11T00:25:22;4.05;;;4.05;;
64678;SDS011;51094;53.864;27.676;2023-03-11T00:27:50;3.97;;;3.92;;
64678;SDS011;51094;53.864;27.676;2023-03-11T00:30:18;4.07;;;4.07;;
64678;SDS011;51094;53.864;27.676;2023-03-11T00:32:49;4.30;;;4.20;;
64678;SDS011;51094;53.864;27.676;2023-03-11T00:35:20;4.20;;;4.20;;
64678;SDS011;51094;53.864;27.676;2023-03-11T00:37:52;4.45;;;4.35;;
64678;SDS011;51094;53.864;27.676;2023-03-11T00:40:22;4.38;;;4.28;;
64678;SDS011;51094;53.864;27.676;2023-03-11T00:42:50;4.28;;;4.28;;
64678;SDS011;51094;53.864;27.676;2023-03-11T00:45:17;4.47;;;4.38;;
64678;SDS011;51094;53.864;27.676;2023-03-11T00:47:44;4.80;;;4.70;;
64678;SDS011;51094;53.864;27.676;2023-03-11T00:50:15;4.63;;;4.53;;
64678;SDS011;51094;53.864;27.676;2023-03-11T00:52:48;4.53;;;4.47;;
64678;SDS011;51094;53.864;27.676;2023-03-11T00:55:17;4.78;;;4.68;;
64678;SDS011;51094;53.864;27.676;2023-03-11T00:57:53;4.72;;;4.63;;
64678;SDS011;51094;53.864;27.676;2023-03-11T01:00:25;4.90;;;4.80;;
64678;SDS011;51094;53.864;27.676;2023-03-11T01:02:58;5.00;;;4.90;;
64678;SDS011;51094;53.864;27.676;2023-03-11T01:05:26;5.50;;;5.40;;
64678;SDS011;51094;53.864;27.676;2023-03-11T01:07:54;5.50;;;5.40;;
64678;SDS011;51094;53.864;27.676;2023-03-11T01:10:22;5.70;;;5.60;;
64678;SDS011;51094;53.864;27.676;2023-03-11T01:12:50;5.28;;;5.18;;
64678;SDS011;51094;53.864;27.676;2023-03-11T01:15:19;6.10;;;6.00;;
64678;SDS011;51094;53.864;27.676;2023-03-11T01:17:49;6.07;;;5.97;;
64678;SDS011;51094;53.864;27.676;2023-03-11T01:20:16;5.78;;;5.68;;
64678;SDS011;51094;53.864;27.676;2023-03-11T01:22:44;6.32;;;6.22;;
64678;SDS011;51094;53.864;27.676;2023-03-11T01:25:12;6.57;;;6.47;;
64678;SDS011;51094;53.864;27.676;2023-03-11T01:27:40;6.50;;;6.40;;
64678;SDS011;51094;53.864;27.676;2023-03-11T01:30:08;6.20;;;6.10;;
64678;SDS011;51094;53.864;27.676;2023-03-11T01:35:05;6.13;;;6.03;;
64678;SDS011;51094;53.864;27.676;2023-03-11T01:37:32;7.25;;;7.15;;
64678;SDS011;51094;53.864;27.676;2023-03-11T01:39:59;6.78;;;6.68;;
64678;SDS011;51094;53.864;27.676;2023-03-11T01:42:26;6.30;;;6.20;;
64678;SDS011;51094;53.864;27.676;2023-03-11T01:44:53;6.88;;;6.78;;
64678;SDS011;51094;53.864;27.676;2023-03-11T01:47:39;6.75;;;6.65;;
64678;SDS011;51094;53.864;27.676;2023-03-11T01:50:09;6.70;;;6.60;;
64678;SDS011;51094;53.864;27.676;2023-03-11T01:52:38;7.15;;;7.00;;
64678;SDS011;51094;53.864;27.676;2023-03-11T01:55:08;7.38;;;7.28;;
64678;SDS011;51094;53.864;27.676;2023-03-11T01:57:35;7.10;;;7.00;;
64678;SDS011;51094;53.864;27.676;2023-03-11T02:00:06;7.18;;;7.07;;
64678;SDS011;51094;53.864;27.676;2023-03-11T02:02:42;7.28;;;7.18;;
64678;SDS011;51094;53.864;27.676;2023-03-11T02:05:14;6.47;;;6.38;;
64678;SDS011;51094;53.864;27.676;2023-03-11T02:07:42;6.70;;;6.60;;
64678;SDS011;51094;53.864;27.676;2023-03-11T02:10:12;7.17;;;7.07;;
64678;SDS011;51094;53.864;27.676;2023-03-11T02:12:40;6.75;;;6.65;;
64678;SDS011;51094;53.864;27.676;2023-03-11T02:15:08;7.03;;;6.93;;
64678;SDS011;51094;53.864;27.676;2023-03-11T02:17:36;7.35;;;7.20;;
64678;SDS011;51094;53.864;27.676;2023-03-11T02:22:52;7.65;;;7.45;;
64678;SDS011;51094;53.864;27.676;2023-03-11T02:25:30;7.43;;;7.25;;
64678;SDS011;51094;53.864;27.676;2023-03-11T02:28:06;7.40;;;7.20;;
64678;SDS011;51094;53.864;27.676;2023-03-11T02:30:36;7.18;;;7.07;;
64678;SDS011;51094;53.864;27.676;2023-03-11T02:33:06;6.40;;;6.30;;
64678;SDS011;51094;53.864;27.676;2023-03-11T02:35:34;6.60;;;6.50;;
64678;SDS011;51094;53.864;27.676;2023-03-11T02:38:01;6.55;;;6.45;;
64678;SDS011;51094;53.864;27.676;2023-03-11T02:40:35;6.22;;;6.13;;
64678;SDS011;51094;53.864;27.676;2023-03-11T02:43:21;6.15;;;6.05;;
64678;SDS011;51094;53.864;27.676;2023-03-11T02:45:53;6.10;;;6.00;;
64678;SDS011;51094;53.864;27.676;2023-03-11T02:48:21;6.15;;;6.05;;
64678;SDS011;51094;53.864;27.676;2023-03-11T02:50:49;6.40;;;6.30;;
64678;SDS011;51094;53.864;27.676;2023-03-11T02:53:18;6.65;;;6.55;;
64678;SDS011;51094;53.864;27.676;2023-03-11T02:55:45;7.43;;;7.32;;
64678;SDS011;51094;53.864;27.676;2023-03-11T02:58:12;7.15;;;6.97;;
64678;SDS011;51094;53.864;27.676;2023-03-11T03:00:39;7.57;;;7.38;;
64678;SDS011;51094;53.864;27.676;2023-03-11T03:03:07;6.93;;;6.82;;
64678;SDS011;51094;53.864;27.676;2023-03-11T03:05:34;7.32;;;7.22;;
64678;SDS011;51094;53.864;27.676;2023-03-11T03:08:01;7.78;;;7.57;;
64678;SDS011;51094;53.864;27.676;2023-03-11T03:10:28;7.72;;;7.53;;
64678;SDS011;51094;53.864;27.676;2023-03-11T03:12:56;7.43;;;7.22;;
64678;SDS011;51094;53.864;27.676;2023-03-11T03:15:23;6.90;;;6.72;;
64678;SDS011;51094;53.864;27.676;2023-03-11T03:17:50;7.65;;;7.45;;
64678;SDS011;51094;53.864;27.676;2023-03-11T03:20:17;6.88;;;6.78;;
64678;SDS011;51094;53.864;27.676;2023-03-11T03:22:48;7.10;;;7.00;;
64678;SDS011;51094;53.864;27.676;2023-03-11T03:25:18;6.87;;;6.77;;
64678;SDS011;51094;53.864;27.676;2023-03-11T03:27:45;7.13;;;6.93;;
64678;SDS011;51094;53.864;27.676;2023-03-11T03:30:13;7.00;;;6.90;;
64678;SDS011;51094;53.864;27.676;2023-03-11T03:32:41;6.72;;;6.63;;
64678;SDS011;51094;53.864;27.676;2023-03-11T03:35:11;6.82;;;6.72;;
64678;SDS011;51094;53.864;27.676;2023-03-11T03:38:01;7.28;;;7.18;;
64678;SDS011;51094;53.864;27.676;2023-03-11T03:40:28;6.72;;;6.63;;
64678;SDS011;51094;53.864;27.676;2023-03-11T03:42:57;6.40;;;6.30;;
64678;SDS011;51094;53.864;27.676;2023-03-11T03:45:25;6.88;;;6.78;;
64678;SDS011;51094;53.864;27.676;2023-03-11T03:47:52;34.95;;;34.05;;
64678;SDS011;51094;53.864;27.676;2023-03-11T03:50:21;17.42;;;17.02;;
64678;SDS011;51094;53.864;27.676;2023-03-11T03:52:50;8.30;;;8.20;;
64678;SDS011;51094;53.864;27.676;2023-03-11T03:55:19;6.63;;;6.53;;
64678;SDS011;51094;53.864;27.676;2023-03-11T03:57:46;8.20;;;8.00;;
64678;SDS011;51094;53.864;27.676;2023-03-11T04:00:14;6.57;;;6.47;;
64678;SDS011;51094;53.864;27.676;2023-03-11T04:02:44;6.78;;;6.68;;
64678;SDS011;51094;53.864;27.676;2023-03-11T04:05:20;6.88;;;6.78;;
64678;SDS011;51094;53.864;27.676;2023-03-11T04:07:47;6.63;;;6.53;;
64678;SDS011;51094;53.864;27.676;2023-03-11T04:10:14;6.40;;;6.30;;
64678;SDS011;51094;53.864;27.676;2023-03-11T04:12:42;6.40;;;6.30;;
64678;SDS011;51094;53.864;27.676;2023-03-11T04:15:09;6.32;;;6.22;;
64678;SDS011;51094;53.864;27.676;2023-03-11T04:17:39;6.30;;;6.20;;
64678;SDS011;51094;53.864;27.676;2023-03-11T04:20:06;6.72;;;6.63;;
64678;SDS011;51094;53.864;27.676;2023-03-11T04:22:35;6.75;;;6.65;;
64678;SDS011;51094;53.864;27.676;2023-03-11T04:25:03;7.25;;;7.13;;
64678;SDS011;51094;53.864;27.676;2023-03-11T04:27:31;7.40;;;7.20;;
64678;SDS011;51094;53.864;27.676;2023-03-11T04:29:59;7.97;;;7.78;;
64678;SDS011;51094;53.864;27.676;2023-03-11T04:32:26;8.15;;;7.95;;
64678;SDS011;51094;53.864;27.676;2023-03-11T04:34:53;9.00;;;8.80;;
64678;SDS011;51094;53.864;27.676;2023-03-11T04:37:20;9.52;;;9.32;;
64678;SDS011;51094;53.864;27.676;2023-03-11T04:39:49;11.70;;;11.40;;
64678;SDS011;51094;53.864;27.676;2023-03-11T04:42:16;11.65;;;11.35;;
64678;SDS011;51094;53.864;27.676;2023-03-11T04:44:44;12.00;;;11.70;;
64678;SDS011;51094;53.864;27.676;2023-03-11T04:47:11;11.82;;;11.52;;
64678;SDS011;51094;53.864;27.676;2023-03-11T04:49:39;12.13;;;11.82;;
64678;SDS011;51094;53.864;27.676;2023-03-11T04:52:06;9.82;;;9.63;;
64678;SDS011;51094;53.864;27.676;2023-03-11T04:54:32;8.65;;;8.45;;
64678;SDS011;51094;53.864;27.676;2023-03-11T04:56:59;7.78;;;7.68;;
64678;SDS011;51094;53.864;27.676;2023-03-11T04:59:26;8.05;;;7.85;;
64678;SDS011;51094;53.864;27.676;2023-03-11T05:01:53;7.82;;;7.72;;
64678;SDS011;51094;53.864;27.676;2023-03-11T05:04:21;8.20;;;8.05;;
64678;SDS011;51094;53.864;27.676;2023-03-11T05:06:48;7.82;;;7.63;;
64678;SDS011;51094;53.864;27.676;2023-03-11T05:09:17;7.68;;;7.57;;
64678;SDS011;51094;53.864;27.676;2023-03-11T05:11:44;8.07;;;7.88;;
64678;SDS011;51094;53.864;27.676;2023-03-11T05:14:13;7.70;;;7.60;;
64678;SDS011;51094;53.864;27.676;2023-03-11T05:16:40;7.78;;;7.68;;
64678;SDS011;51094;53.864;27.676;2023-03-11T05:19:08;7.85;;;7.75;;
64678;SDS011;51094;53.864;27.676;2023-03-11T05:21:54;8.13;;;7.93;;
64678;SDS011;51094;53.864;27.676;2023-03-11T05:24:23;7.35;;;7.25;;
64678;SDS011;51094;53.864;27.676;2023-03-11T05:26:53;7.55;;;7.45;;
64678;SDS011;51094;53.864;27.676;2023-03-11T05:29:21;7.10;;;7.00;;
64678;SDS011;51094;53.864;27.676;2023-03-11T05:31:48;7.20;;;7.07;;
64678;SDS011;51094;53.864;27.676;2023-03-11T05:34:17;6.90;;;6.80;;
64678;SDS011;51094;53.864;27.676;2023-03-11T05:36:44;7.15;;;7.05;;
64678;SDS011;51094;53.864;27.676;2023-03-11T05:39:12;7.38;;;7.28;;
64678;SDS011;51094;53.864;27.676;2023-03-11T05:41:38;7.13;;;7.03;;
64678;SDS011;51094;53.864;27.676;2023-03-11T05:44:06;7.10;;;7.00;;
64678;SDS011;51094;53.864;27.676;2023-03-11T05:46:33;7.45;;;7.35;;
64678;SDS011;51094;53.864;27.676;2023-03-11T05:49:01;7.75;;;7.65;;
64678;SDS011;51094;53.864;27.676;2023-03-11T05:51:28;7.85;;;7.65;;
64678;SDS011;51094;53.864;27.676;2023-03-11T05:53:55;7.70;;;7.50;;
64678;SDS011;51094;53.864;27.676;2023-03-11T05:56:31;7.38;;;7.28;;
64678;SDS011;51094;53.864;27.676;2023-03-11T05:58:59;7.45;;;7.35;;
64678;SDS011;51094;53.864;27.676;2023-03-11T06:01:29;7.55;;;7.45;;
64678;SDS011;51094;53.864;27.676;2023-03-11T06:03:56;6.97;;;6.88;;
64678;SDS011;51094;53.864;27.676;2023-03-11T06:06:23;7.50;;;7.30;;
64678;SDS011;51094;53.864;27.676;2023-03-11T06:08:50;6.90;;;6.80;;
64678;SDS011;51094;53.864;27.676;2023-03-11T06:11:19;6.72;;;6.63;;
64678;SDS011;51094;53.864;27.676;2023-03-11T06:13:51;6.63;;;6.53;;
64678;SDS011;51094;53.864;27.676;2023-03-11T06:16:21;6.55;;;6.45;;
64678;SDS011;51094;53.864;27.676;2023-03-11T06:18:51;6.50;;;6.40;;
64678;SDS011;51094;53.864;27.676;2023-03-11T06:21:19;6.30;;;6.20;;
64678;SDS011;51094;53.864;27.676;2023-03-11T06:23:48;6.82;;;6.72;;
64678;SDS011;51094;53.864;27.676;2023-03-11T06:26:16;6.03;;;5.93;;
64678;SDS011;51094;53.864;27.676;2023-03-11T06:28:46;6.38;;;6.28;;
64678;SDS011;51094;53.864;27.676;2023-03-11T06:31:48;6.88;;;6.78;;
64678;SDS011;51094;53.864;27.676;2023-03-11T06:34:13;6.65;;;6.47;;
64678;SDS011;51094;53.864;27.676;2023-03-11T06:36:41;6.32;;;6.22;;
64678;SDS011;51094;53.864;27.676;2023-03-11T06:39:09;6.53;;;6.43;;
64678;SDS011;51094;53.864;27.676;2023-03-11T06:41:38;6.60;;;6.43;;
64678;SDS011;51094;53.864;27.676;2023-03-11T06:44:08;6.35;;;6.25;;
64678;SDS011;51094;53.864;27.676;2023-03-11T06:46:37;6.53;;;6.43;;
64678;SDS011;51094;53.864;27.676;2023-03-11T06:49:04;6.32;;;6.22;;
64678;SDS011;51094;53.864;27.676;2023-03-11T06:51:32;6.50;;;6.30;;
64678;SDS011;51094;53.864;27.676;2023-03-11T06:54:01;6.28;;;6.18;;
64678;SDS011;51094;53.864;27.676;2023-03-11T06:56:28;6.30;;;6.20;;
64678;SDS011;51094;53.864;27.676;2023-03-11T06:59:03;5.68;;;5.57;;
64678;SDS011;51094;53.864;27.676;2023-03-11T07:01:32;6.35;;;6.25;;
64678;SDS011;51094;53.864;27.676;2023-03-11T07:04:02;6.03;;;5.93;;
64678;SDS011;51094;53.864;27.676;2023-03-11T07:06:30;6.30;;;6.20;;
64678;SDS011;51094;53.864;27.676;2023-03-11T07:09:03;6.32;;;6.22;;
64678;SDS011;51094;53.864;27.676;2023-03-11T07:11:32;6.20;;;6.10;;
64678;SDS011;51094;53.864;27.676;2023-03-11T07:14:12;5.75;;;5.65;;
64678;SDS011;51094;53.864;27.676;2023-03-11T07:16:44;5.95;;;5.85;;
64678;SDS011;51094;53.864;27.676;2023-03-11T07:19:22;6.10;;;6.00;;
64678;SDS011;51094;53.864;27.676;2023-03-11T07:21:49;6.18;;;6.07;;
64678;SDS011;51094;53.864;27.676;2023-03-11T07:24:17;5.93;;;5.82;;
64678;SDS011;51094;53.864;27.676;2023-03-11T07:26:44;5.80;;;5.70;;
64678;SDS011;51094;53.864;27.676;2023-03-11T07:29:11;5.93;;;5.82;;
64678;SDS011;51094;53.864;27.676;2023-03-11T07:31:38;5.43;;;5.32;;
64678;SDS011;51094;53.864;27.676;2023-03-11T07:34:06;5.70;;;5.60;;
64678;SDS011;51094;53.864;27.676;2023-03-11T07:36:40;5.80;;;5.70;;
64678;SDS011;51094;53.864;27.676;2023-03-11T07:39:13;5.43;;;5.32;;
64678;SDS011;51094;53.864;27.676;2023-03-11T07:41:42;5.45;;;5.35;;
64678;SDS011;51094;53.864;27.676;2023-03-11T07:44:10;5.40;;;5.30;;
64678;SDS011;51094;53.864;27.676;2023-03-11T07:46:39;5.57;;;5.47;;
64678;SDS011;51094;53.864;27.676;2023-03-11T07:49:06;5.32;;;5.22;;
64678;SDS011;51094;53.864;27.676;2023-03-11T07:51:34;5.00;;;4.90;;
64678;SDS011;51094;53.864;27.676;2023-03-11T07:54:02;5.30;;;5.20;;
64678;SDS011;51094;53.864;27.676;2023-03-11T07:56:31;5.05;;;4.95;;
64678;SDS011;51094;53.864;27.676;2023-03-11T07:59:00;5.03;;;4.93;;
64678;SDS011;51094;53.864;27.676;2023-03-11T08:01:29;5.32;;;5.22;;
64678;SDS011;51094;53.864;27.676;2023-03-11T08:04:04;5.10;;;5.00;;
64678;SDS011;51094;53.864;27.676;2023-03-11T08:06:33;5.22;;;5.13;;
64678;SDS011;51094;53.864;27.676;2023-03-11T08:09:06;5.03;;;4.93;;
64678;SDS011;51094;53.864;27.676;2023-03-11T08:11:35;4.90;;;4.80;;
64678;SDS011;51094;53.864;27.676;2023-03-11T08:14:02;5.15;;;5.05;;
64678;SDS011;51094;53.864;27.676;2023-03-11T08:16:30;5.13;;;5.03;;
64678;SDS011;51094;53.864;27.676;2023-03-11T08:18:57;5.15;;;5.05;;
64678;SDS011;51094;53.864;27.676;2023-03-11T08:21:25;5.13;;;5.03;;
64678;SDS011;51094;53.864;27.676;2023-03-11T08:23:56;5.07;;;4.97;;
64678;SDS011;51094;53.864;27.676;2023-03-11T08:26:24;4.93;;;4.82;;
64678;SDS011;51094;53.864;27.676;2023-03-11T08:28:52;4.65;;;4.55;;
64678;SDS011;51094;53.864;27.676;2023-03-11T08:31:21;4.65;;;4.55;;
64678;SDS011;51094;53.864;27.676;2023-03-11T08:36:20;4.65;;;4.55;;
64678;SDS011;51094;53.864;27.676;2023-03-11T08:38:47;4.85;;;4.75;;
64678;SDS011;51094;53.864;27.676;2023-03-11T08:41:14;4.43;;;4.32;;
64678;SDS011;51094;53.864;27.676;2023-03-11T08:43:42;4.60;;;4.50;;
64678;SDS011;51094;53.864;27.676;2023-03-11T08:46:22;4.63;;;4.53;;
64678;SDS011;51094;53.864;27.676;2023-03-11T08:48:56;4.80;;;4.70;;
64678;SDS011;51094;53.864;27.676;2023-03-11T08:51:27;4.57;;;4.47;;
64678;SDS011;51094;53.864;27.676;2023-03-11T08:53:56;4.68;;;4.57;;
64678;SDS011;51094;53.864;27.676;2023-03-11T08:56:23;4.22;;;4.13;;
64678;SDS011;51094;53.864;27.676;2023-03-11T08:58:51;4.63;;;4.53;;
64678;SDS011;51094;53.864;27.676;2023-03-11T09:01:18;4.43;;;4.32;;
64678;SDS011;51094;53.864;27.676;2023-03-11T09:03:45;4.55;;;4.40;;
64678;SDS011;51094;53.864;27.676;2023-03-11T09:06:13;3.90;;;3.90;;
64678;SDS011;51094;53.864;27.676;2023-03-11T09:08:42;4.07;;;4.00;;
64678;SDS011;51094;53.864;27.676;2023-03-11T09:11:10;4.25;;;4.15;;
64678;SDS011;51094;53.864;27.676;2023-03-11T09:13:39;3.70;;;3.67;;
64678;SDS011;51094;53.864;27.676;2023-03-11T09:16:08;3.67;;;3.58;;
64678;SDS011;51094;53.864;27.676;2023-03-11T09:18:38;3.53;;;3.53;;
64678;SDS011;51094;53.864;27.676;2023-03-11T09:21:05;3.50;;;3.50;;
64678;SDS011;51094;53.864;27.676;2023-03-11T09:23:32;4.00;;;3.90;;
64678;SDS011;51094;53.864;27.676;2023-03-11T09:25:59;4.05;;;3.95;;
64678;SDS011;51094;53.864;27.676;2023-03-11T09:28:26;3.90;;;3.80;;
64678;SDS011;51094;53.864;27.676;2023-03-11T09:30:53;3.70;;;3.60;;
64678;SDS011;51094;53.864;27.676;2023-03-11T09:33:20;3.97;;;3.88;;
64678;SDS011;51094;53.864;27.676;2023-03-11T09:35:47;3.80;;;3.70;;
64678;SDS011;51094;53.864;27.676;2023-03-11T09:38:14;3.80;;;3.70;;
64678;SDS011;51094;53.864;27.676;2023-03-11T09:43:22;3.40;;;3.40;;
64678;SDS011;51094;53.864;27.676;2023-03-11T09:49:08;3.50;;;3.50;;
64678;SDS011;51094;53.864;27.676;2023-03-11T09:54:26;3.60;;;3.60;;
64678;SDS011;51094;53.864;27.676;2023-03-11T09:56:57;3.50;;;3.50;;
64678;SDS011;51094;53.864;27.676;2023-03-11T10:01:58;3.50;;;3.40;;
64678;SDS011;51094;53.864;27.676;2023-03-11T10:04:27;3.50;;;3.50;;
64678;SDS011;51094;53.864;27.676;2023-03-11T10:07:00;3.58;;;3.58;;
64678;SDS011;51094;53.864;27.676;2023-03-11T10:09:36;3.58;;;3.47;;
64678;SDS011;51094;53.864;27.676;2023-03-11T10:12:16;3.60;;;3.50;;
64678;SDS011;51094;53.864;27.676;2023-03-11T10:17:39;3.40;;;3.30;;
64678;SDS011;51094;53.864;27.676;2023-03-11T10:23:28;3.45;;;3.45;;
64678;SDS011;51094;53.864;27.676;2023-03-11T10:26:14;3.97;;;3.88;;
64678;SDS011;51094;53.864;27.676;2023-03-11T10:29:26;3.78;;;3.67;;
64678;SDS011;51094;53.864;27.676;2023-03-11T10:35:19;4.35;;;4.25;;
64678;SDS011;51094;53.864;27.676;2023-03-11T10:37:58;4.10;;;4.00;;
64678;SDS011;51094;53.864;27.676;2023-03-11T10:40:32;5.22;;;5.13;;
64678;SDS011;51094;53.864;27.676;2023-03-11T10:43:48;5.97;;;5.88;;
64678;SDS011;51094;53.864;27.676;2023-03-11T10:45:57;5.07;;;4.97;;
64678;SDS011;51094;53.864;27.676;2023-03-11T10:48:24;4.85;;;4.75;;
64678;SDS011;51094;53.864;27.676;2023-03-11T10:51:02;4.20;;;4.10;;
64678;SDS011;51094;53.864;27.676;2023-03-11T10:53:29;3.80;;;3.70;;
64678;SDS011;51094;53.864;27.676;2023-03-11T10:55:57;4.30;;;4.20;;
64678;SDS011;51094;53.864;27.676;2023-03-11T10:58:26;4.63;;;4.53;;
64678;SDS011;51094;53.864;27.676;2023-03-11T11:01:00;4.15;;;4.05;;
64678;SDS011;51094;53.864;27.676;2023-03-11T11:03:42;4.40;;;4.30;;
64678;SDS011;51094;53.864;27.676;2023-03-11T11:06:32;3.40;;;3.40;;
64678;SDS011;51094;53.864;27.676;2023-03-11T11:12:10;3.38;;;3.30;;
64678;SDS011;51094;53.864;27.676;2023-03-11T11:14:45;3.67;;;3.58;;
64678;SDS011;51094;53.864;27.676;2023-03-11T11:17:23;3.70;;;3.60;;
64678;SDS011;51094;53.864;27.676;2023-03-11T11:19:55;3.70;;;3.70;;
64678;SDS011;51094;53.864;27.676;2023-03-11T11:22:24;3.50;;;3.50;;
64678;SDS011;51094;53.864;27.676;2023-03-11T11:24:52;3.13;;;3.03;;
64678;SDS011;51094;53.864;27.676;2023-03-11T11:27:24;3.40;;;3.30;;
64678;SDS011;51094;53.864;27.676;2023-03-11T11:32:36;3.40;;;3.30;;
64678;SDS011;51094;53.864;27.676;2023-03-11T11:35:11;3.45;;;3.35;;
64678;SDS011;51094;53.864;27.676;2023-03-11T11:37:50;3.72;;;3.63;;
64678;SDS011;51094;53.864;27.676;2023-03-11T11:42:50;3.50;;;3.40;;
64678;SDS011;51094;53.864;27.676;2023-03-11T11:45:24;3.60;;;3.50;;
64678;SDS011;51094;53.864;27.676;2023-03-11T11:47:57;3.35;;;3.25;;
64678;SDS011;51094;53.864;27.676;2023-03-11T11:50:36;3.50;;;3.40;;
64678;SDS011;51094;53.864;27.676;2023-03-11T11:53:27;3.38;;;3.28;;
64678;SDS011;51094;53.864;27.676;2023-03-11T11:56:15;3.30;;;3.25;;
64678;SDS011;51094;53.864;27.676;2023-03-11T11:58:42;3.10;;;3.10;;
64678;SDS011;51094;53.864;27.676;2023-03-11T12:01:13;3.35;;;3.25;;
64678;SDS011;51094;53.864;27.676;2023-03-11T12:06:28;3.17;;;3.17;;
64678;SDS011;51094;53.864;27.676;2023-03-11T12:09:16;3.38;;;3.28;;
64678;SDS011;51094;53.864;27.676;2023-03-11T12:11:55;3.13;;;3.03;;
64678;SDS011;51094;53.864;27.676;2023-03-11T12:14:52;2.90;;;2.90;;
64678;SDS011;51094;53.864;27.676;2023-03-11T12:17:26;3.40;;;3.30;;
64678;SDS011;51094;53.864;27.676;2023-03-11T12:19:57;3.22;;;3.13;;
64678;SDS011;51094;53.864;27.676;2023-03-11T12:25:27;3.60;;;3.50;;
64678;SDS011;51094;53.864;27.676;2023-03-11T12:30:50;3.75;;;3.65;;
64678;SDS011;51094;53.864;27.676;2023-03-11T12:35:57;3.70;;;3.60;;
64678;SDS011;51094;53.864;27.676;2023-03-11T12:46:00;3.10;;;3.00;;
64678;SDS011;51094;53.864;27.676;2023-03-11T12:50:55;3.30;;;3.20;;
64678;SDS011;51094;53.864;27.676;2023-03-11T12:53:46;3.08;;;2.97;;
64678;SDS011;51094;53.864;27.676;2023-03-11T13:01:42;2.50;;;2.50;;
64678;SDS011;51094;53.864;27.676;2023-03-11T13:04:38;2.90;;;2.80;;
64678;SDS011;51094;53.864;27.676;2023-03-11T13:10:13;3.50;;;3.40;;
64678;SDS011;51094;53.864;27.676;2023-03-11T13:13:00;3.10;;;3.00;;
64678;SDS011;51094;53.864;27.676;2023-03-11T13:15:28;3.78;;;3.67;;
64678;SDS011;51094;53.864;27.676;2023-03-11T13:23:14;3.75;;;3.65;;
64678;SDS011;51094;53.864;27.676;2023-03-11T13:26:01;3.85;;;3.75;;
64678;SDS011;51094;53.864;27.676;2023-03-11T13:34:44;4.75;;;4.65;;
64678;SDS011;51094;53.864;27.676;2023-03-11T13:40:31;4.47;;;4.38;;
64678;SDS011;51094;53.864;27.676;2023-03-11T13:43:16;4.30;;;4.20;;
64678;SDS011;51094;53.864;27.676;2023-03-11T13:46:10;4.80;;;4.70;;
64678;SDS011;51094;53.864;27.676;2023-03-11T13:48:43;5.07;;;4.97;;
64678;SDS011;51094;53.864;27.676;2023-03-11T13:51:34;4.75;;;4.65;;
64678;SDS011;51094;53.864;27.676;2023-03-11T13:56:53;3.83;;;3.72;;
64678;SDS011;51094;53.864;27.676;2023-03-11T13:59:28;4.13;;;4.13;;
64678;SDS011;51094;53.864;27.676;2023-03-11T14:04:31;4.10;;;4.05;;
64678;SDS011;51094;53.864;27.676;2023-03-11T14:07:17;4.30;;;4.20;;
64678;SDS011;51094;53.864;27.676;2023-03-11T14:09:49;4.22;;;4.13;;
64678;SDS011;51094;53.864;27.676;2023-03-11T14:12:16;4.28;;;4.18;;
64678;SDS011;51094;53.864;27.676;2023-03-11T14:15:04;4.43;;;4.32;;
64678;SDS011;51094;53.864;27.676;2023-03-11T14:17:36;4.30;;;4.28;;
64678;SDS011;51094;53.864;27.676;2023-03-11T14:20:17;4.95;;;4.85;;
64678;SDS011;51094;53.864;27.676;2023-03-11T14:22:48;4.65;;;4.55;;
64678;SDS011;51094;53.864;27.676;2023-03-11T14:27:58;8.23;;;8.03;;
64678;SDS011;51094;53.864;27.676;2023-03-11T14:30:28;8.60;;;8.40;;
64678;SDS011;51094;53.864;27.676;2023-03-11T14:33:01;8.07;;;7.88;;
64678;SDS011;51094;53.864;27.676;2023-03-11T14:35:50;7.85;;;7.65;;
64678;SDS011;51094;53.864;27.676;2023-03-11T14:38:41;8.40;;;8.20;;
64678;SDS011;51094;53.864;27.676;2023-03-11T14:41:09;8.82;;;8.63;;
64678;SDS011;51094;53.864;27.676;2023-03-11T14:46:14;7.53;;;7.32;;
64678;SDS011;51094;53.864;27.676;2023-03-11T14:48:47;7.32;;;7.18;;
64678;SDS011;51094;53.864;27.676;2023-03-11T14:51:22;7.28;;;7.18;;
64678;SDS011;51094;53.864;27.676;2023-03-11T14:57:26;7.43;;;7.22;;
64678;SDS011;51094;53.864;27.676;2023-03-11T14:59:49;7.03;;;6.93;;
64678;SDS011;51094;53.864;27.676;2023-03-11T15:05:46;6.78;;;6.68;;
64678;SDS011;51094;53.864;27.676;2023-03-11T15:08:20;6.78;;;6.68;;
64678;SDS011;51094;53.864;27.676;2023-03-11T15:11:02;7.38;;;7.18;;
64678;SDS011;51094;53.864;27.676;2023-03-11T15:13:32;7.55;;;7.35;;
64678;SDS011;51094;53.864;27.676;2023-03-11T15:16:01;7.80;;;7.60;;
64678;SDS011;51094;53.864;27.676;2023-03-11T15:18:32;7.15;;;7.03;;
64678;SDS011;51094;53.864;27.676;2023-03-11T15:21:19;6.55;;;6.43;;
64678;SDS011;51094;53.864;27.676;2023-03-11T15:23:49;8.20;;;8.00;;
64678;SDS011;51094;53.864;27.676;2023-03-11T15:29:01;7.75;;;7.55;;
64678;SDS011;51094;53.864;27.676;2023-03-11T15:31:49;8.90;;;8.70;;
64678;SDS011;51094;53.864;27.676;2023-03-11T15:34:29;8.57;;;8.38;;
64678;SDS011;51094;53.864;27.676;2023-03-11T15:36:58;8.23;;;8.02;;
64678;SDS011;51094;53.864;27.676;2023-03-11T15:39:46;9.38;;;9.18;;
64678;SDS011;51094;53.864;27.676;2023-03-11T15:42:20;9.25;;;9.05;;
64678;SDS011;51094;53.864;27.676;2023-03-11T15:47:48;9.55;;;9.35;;
64678;SDS011;51094;53.864;27.676;2023-03-11T15:52:55;9.40;;;9.20;;
64678;SDS011;51094;53.864;27.676;2023-03-11T15:55:24;11.93;;;11.63;;
64678;SDS011;51094;53.864;27.676;2023-03-11T15:57:55;10.43;;;10.23;;
64678;SDS011;51094;53.864;27.676;2023-03-11T16:00:27;9.75;;;9.55;;
64678;SDS011;51094;53.864;27.676;2023-03-11T16:02:55;9.88;;;9.68;;
64678;SDS011;51094;53.864;27.676;2023-03-11T16:05:23;10.10;;;9.90;;
64678;SDS011;51094;53.864;27.676;2023-03-11T16:07:50;10.68;;;10.38;;
64678;SDS011;51094;53.864;27.676;2023-03-11T16:10:18;10.70;;;10.40;;
64678;SDS011;51094;53.864;27.676;2023-03-11T16:12:47;10.95;;;10.65;;
64678;SDS011;51094;53.864;27.676;2023-03-11T16:15:33;10.93;;;10.73;;
64678;SDS011;51094;53.864;27.676;2023-03-11T16:18:03;10.60;;;10.30;;
64678;SDS011;51094;53.864;27.676;2023-03-11T16:20:36;11.77;;;11.48;;
64678;SDS011;51094;53.864;27.676;2023-03-11T16:23:09;11.48;;;11.18;;
64678;SDS011;51094;53.864;27.676;2023-03-11T16:26:02;10.90;;;10.60;;
64678;SDS011;51094;53.864;27.676;2023-03-11T16:28:30;13.57;;;13.18;;
64678;SDS011;51094;53.864;27.676;2023-03-11T16:30:57;11.80;;;11.50;;
64678;SDS011;51094;53.864;27.676;2023-03-11T16:33:24;8.30;;;8.10;;
64678;SDS011;51094;53.864;27.676;2023-03-11T16:35:51;8.80;;;8.60;;
64678;SDS011;51094;53.864;27.676;2023-03-11T16:38:18;8.77;;;8.57;;
64678;SDS011;51094;53.864;27.676;2023-03-11T16:40:53;9.02;;;8.82;;
64678;SDS011;51094;53.864;27.676;2023-03-11T16:43:22;9.52;;;9.32;;